Time;durP1;ratioP1;P1;durP2;ratioP2;P2;SDS_P1;SDS_P2;PMS_P1;PMS_P2;Temp;Humidity;BMP_temperature;BMP_pressure;BME280_temperature;BME280_humidity;BME280_pressure;Samples;Min_cycle;Max_cycle;Signal;HPM_P1;HPM_P2
2023/03/24 00:06:08;;;;;;;35.00;18.17;;;4.60;99.90;;;;;;20986409;28;20067;-46
2023/03/24 00:16:12;;;;;;;40.33;20.35;;;4.60;99.90;;;;;;20981489;28;20048;-50
2023/03/24 00:26:14;;;;;;;43.53;20.33;;;4.50;99.90;;;;;;20956484;28;20044;-47
2023/03/24 00:36:19;;;;;;;42.00;18.92;;;4.50;99.90;;;;;;20968073;28;20024;-48
2023/03/24 00:46:26;;;;;;;42.47;21.70;;;4.40;99.90;;;;;;20983955;28;20105;-49
2023/03/24 00:56:30;;;;;;;44.38;21.17;;;4.30;99.90;;;;;;20965159;28;20040;-47
2023/03/24 01:06:35;;;;;;;42.20;20.98;;;4.30;99.90;;;;;;20981783;28;20052;-47
2023/03/24 01:16:37;;;;;;;39.25;20.30;;;4.70;99.90;;;;;;20973521;28;20044;-48
2023/03/24 01:26:39;;;;;;;39.67;21.48;;;5.30;99.90;;;;;;20996723;28;20043;-48
2023/03/24 01:36:40;;;;;;;42.38;20.90;;;5.70;99.90;;;;;;20997239;28;20566;-49
2023/03/24 01:46:42;;;;;;;34.28;19.13;;;5.70;99.90;;;;;;20995462;28;20025;-47
2023/03/24 01:56:54;;;;;;;37.30;19.90;;;5.40;99.90;;;;;;20976876;28;20063;-51
2023/03/24 02:06:58;;;;;;;38.55;20.77;;;4.90;99.90;;;;;;20977406;28;20032;-50
2023/03/24 02:17:07;;;;;;;41.33;20.58;;;4.50;99.90;;;;;;20975032;28;20090;-50
2023/03/24 02:27:36;;;;;;;41.60;20.85;;;4.30;99.90;;;;;;20973190;28;20033;-48
2023/03/24 02:38:28;;;;;;;46.53;22.45;;;4.20;99.90;;;;;;20992982;28;20133;-47
2023/03/24 02:48:33;;;;;;;38.05;19.55;;;4.10;99.90;;;;;;20572509;28;20086;-50
2023/03/24 02:58:48;;;;;;;39.63;20.40;;;4.20;99.90;;;;;;20556225;28;20078;-46
2023/03/24 03:08:51;;;;;;;39.22;20.65;;;4.00;99.90;;;;;;20554833;28;20046;-49
2023/03/24 03:19:00;;;;;;;42.72;21.33;;;4.00;99.90;;;;;;20716107;28;20549;-48
2023/03/24 03:29:16;;;;;;;41.15;19.02;;;3.90;99.90;;;;;;20969324;28;20440;-51
2023/03/24 03:39:31;;;;;;;37.92;20.25;;;3.90;99.90;;;;;;20968701;28;20047;-49
2023/03/24 03:49:36;;;;;;;50.17;23.90;;;3.80;99.90;;;;;;20969497;28;20051;-52
2023/03/24 03:59:38;;;;;;;48.28;24.63;;;3.80;99.90;;;;;;20967930;28;20036;-50
2023/03/24 04:10:12;;;;;;;43.47;22.63;;;3.80;99.90;;;;;;20967161;28;20041;-48
2023/03/24 04:20:21;;;;;;;43.35;22.92;;;3.80;99.90;;;;;;20967238;28;20039;-47
2023/03/24 04:30:49;;;;;;;54.58;25.83;;;3.90;99.90;;;;;;20966666;28;20048;-47
2023/03/24 04:40:56;;;;;;;48.50;26.35;;;4.00;99.90;;;;;;20966330;28;20043;-47
2023/03/24 04:51:00;;;;;;;48.63;25.90;;;4.00;99.90;;;;;;20975791;28;20494;-49
2023/03/24 05:01:10;;;;;;;55.60;27.92;;;3.80;99.90;;;;;;20981740;28;20033;-50
2023/03/24 05:11:17;;;;;;;58.10;28.67;;;3.80;99.90;;;;;;20978496;28;20402;-48
2023/03/24 05:21:28;;;;;;;52.85;27.88;;;3.90;99.90;;;;;;20979841;28;20040;-49
2023/03/24 05:31:29;;;;;;;57.67;27.20;;;4.10;99.90;;;;;;20996642;28;20029;-52
2023/03/24 05:41:39;;;;;;;53.92;26.30;;;4.40;99.90;;;;;;20975455;28;20105;-47
2023/03/24 05:51:41;;;;;;;52.70;27.10;;;4.70;99.90;;;;;;20995319;28;20078;-47
2023/03/24 06:01:43;;;;;;;55.38;28.90;;;4.80;99.90;;;;;;20985015;28;20078;-48
2023/03/24 06:11:55;;;;;;;51.33;26.35;;;5.10;99.90;;;;;;20959193;28;20506;-49
2023/03/24 06:22:01;;;;;;;47.92;25.65;;;5.50;99.90;;;;;;20975313;28;20037;-49
2023/03/24 06:32:07;;;;;;;47.08;25.55;;;6.00;99.90;;;;;;20974339;28;20036;-52
2023/03/24 06:42:17;;;;;;;42.13;23.52;;;6.30;99.90;;;;;;20971653;28;20025;-49
2023/03/24 06:52:19;;;;;;;38.55;21.73;;;6.80;99.90;;;;;;20890198;28;20475;-49
2023/03/24 07:02:21;;;;;;;35.30;21.05;;;8.10;99.90;;;;;;20954843;28;20387;-51
2023/03/24 07:12:25;;;;;;;45.85;25.48;;;9.00;99.90;;;;;;20953909;28;20040;-50
2023/03/24 07:22:27;;;;;;;44.38;27.48;;;9.30;99.90;;;;;;20970114;28;20392;-47
2023/03/24 07:33:11;;;;;;;49.40;28.70;;;9.60;99.90;;;;;;20698061;28;20061;-50
2023/03/24 07:43:14;;;;;;;42.83;27.08;;;9.70;99.90;;;;;;20658520;28;20515;-49
2023/03/24 07:53:34;;;;;;;43.28;27.48;;;9.80;99.90;;;;;;20730389;28;20072;-47
2023/03/24 08:03:39;;;;;;;47.28;29.38;;;9.70;99.90;;;;;;20930684;28;20044;-51
2023/03/24 08:13:57;;;;;;;48.40;29.10;;;9.70;99.90;;;;;;20967758;28;20120;-52
2023/03/24 08:23:59;;;;;;;44.83;27.67;;;9.70;99.90;;;;;;20992511;28;20045;-50
2023/03/24 08:34:01;;;;;;;44.55;27.25;;;9.70;99.90;;;;;;20983138;28;20094;-49
2023/03/24 08:44:03;;;;;;;44.78;28.40;;;10.30;99.90;;;;;;21000375;28;20137;-48
2023/03/24 08:54:06;;;;;;;45.42;29.23;;;10.70;99.90;;;;;;20999764;28;20029;-48
2023/03/24 09:04:08;;;;;;;43.90;29.63;;;11.40;99.90;;;;;;20998595;28;20478;-50
2023/03/24 09:14:09;;;;;;;52.55;34.38;;;11.80;99.90;;;;;;20998747;28;20410;-50
2023/03/24 09:24:11;;;;;;;51.10;33.03;;;12.00;99.90;;;;;;20998887;28;20066;-51
2023/03/24 09:34:13;;;;;;;49.92;32.78;;;11.80;99.90;;;;;;20995988;28;20033;-49
2023/03/24 09:44:28;;;;;;;49.95;30.50;;;11.60;99.90;;;;;;20996065;28;20029;-48
2023/03/24 09:54:48;;;;;;;44.85;29.35;;;11.50;99.90;;;;;;20996338;28;20028;-49
2023/03/24 10:04:50;;;;;;;44.13;29.73;;;11.20;99.90;;;;;;20994232;28;20032;-51
2023/03/24 10:15:07;;;;;;;42.20;27.27;;;11.80;99.90;;;;;;20993605;28;20105;-52
2023/03/24 10:25:20;;;;;;;37.50;25.90;;;13.00;99.90;;;;;;20993162;28;20575;-49
2023/03/24 10:35:34;;;;;;;36.72;25.38;;;13.60;99.90;;;;;;20992067;28;20390;-52
2023/03/24 10:45:39;;;;;;;35.50;24.05;;;14.20;99.90;;;;;;20972440;28;20036;-50
2023/03/24 10:55:42;;;;;;;39.78;27.00;;;14.30;99.90;;;;;;20991509;28;20029;-49
2023/03/24 11:05:44;;;;;;;32.42;23.17;;;13.70;99.90;;;;;;20989426;28;20374;-50
2023/03/24 11:16:07;;;;;;;25.42;18.73;;;14.00;99.90;;;;;;20988615;28;20040;-50
2023/03/24 11:26:15;;;;;;;22.50;15.90;;;14.70;99.90;;;;;;20987458;28;20040;-49
2023/03/24 11:36:29;;;;;;;20.75;14.15;;;14.30;99.90;;;;;;20952843;28;20489;-48
2023/03/24 11:46:31;;;;;;;16.05;11.98;;;13.60;99.90;;;;;;20986405;28;20095;-51
2023/03/24 11:56:43;;;;;;;17.17;8.68;;;14.50;99.90;;;;;;20985720;28;20040;-53
2023/03/24 12:07:18;;;;;;;9.85;7.10;;;15.30;99.90;;;;;;20986592;28;20037;-48
2023/03/24 12:17:23;;;;;;;10.38;7.72;;;15.60;99.90;;;;;;20985218;28;20070;-50
2023/03/24 12:27:44;;;;;;;11.18;5.07;;;16.80;99.90;;;;;;20985667;28;20148;-51
2023/03/24 12:38:10;;;;;;;8.68;5.13;;;17.00;99.90;;;;;;20984502;28;20070;-50
2023/03/24 12:48:33;;;;;;;5.82;4.50;;;16.90;99.90;;;;;;20984752;28;20024;-49
2023/03/24 12:58:43;;;;;;;7.72;4.25;;;17.00;99.90;;;;;;20983121;28;20029;-52
2023/03/24 13:08:55;;;;;;;8.10;4.90;;;16.00;99.90;;;;;;20987008;28;20087;-51
2023/03/24 13:19:01;;;;;;;8.98;4.13;;;15.90;99.90;;;;;;20997770;28;20045;-51
2023/03/24 13:29:02;;;;;;;10.57;4.13;;;15.60;99.90;;;;;;20996824;28;20113;-50
2023/03/24 13:39:18;;;;;;;7.57;4.40;;;15.70;99.90;;;;;;20996077;28;20467;-50
2023/03/24 13:49:20;;;;;;;7.10;3.53;;;15.40;99.90;;;;;;20995766;28;20032;-49
2023/03/24 13:59:37;;;;;;;9.45;4.80;;;15.00;99.90;;;;;;20994763;28;20032;-48
2023/03/24 14:09:57;;;;;;;6.22;4.70;;;14.50;99.90;;;;;;20995101;28;20555;-51
2023/03/24 14:20:03;;;;;;;9.60;5.25;;;13.90;99.90;;;;;;20992917;28;20032;-53
2023/03/24 14:30:20;;;;;;;7.40;5.03;;;13.50;99.90;;;;;;20992295;28;20036;-50
2023/03/24 14:40:34;;;;;;;8.85;5.07;;;12.80;99.90;;;;;;20991637;28;20033;-52
2023/03/24 14:50:36;;;;;;;5.88;4.43;;;12.30;99.90;;;;;;20990752;28;20036;-50
2023/03/24 15:00:49;;;;;;;6.40;4.53;;;12.40;99.90;;;;;;20989501;28;20036;-51
2023/03/24 15:11:05;;;;;;;8.32;4.45;;;12.30;99.90;;;;;;20986107;28;20094;-52
2023/03/24 15:21:15;;;;;;;9.93;5.05;;;12.00;99.90;;;;;;20988339;28;20039;-52
2023/03/24 15:31:16;;;;;;;9.85;5.97;;;11.60;99.90;;;;;;20985395;28;20488;-50
2023/03/24 15:41:21;;;;;;;6.00;5.10;;;10.70;99.90;;;;;;20985948;28;20474;-49
2023/03/24 15:51:50;;;;;;;12.02;6.63;;;10.30;99.90;;;;;;20986537;28;20036;-54
2023/03/24 16:01:51;;;;;;;15.40;7.22;;;10.10;99.90;;;;;;20986959;28;20547;-47
2023/03/24 16:11:53;;;;;;;7.97;6.15;;;10.10;99.90;;;;;;20950439;28;20087;-49
2023/03/24 16:21:55;;;;;;;7.07;5.53;;;10.10;99.90;;;;;;20902439;28;20037;-53
2023/03/24 16:31:57;;;;;;;7.20;4.55;;;10.00;99.90;;;;;;20901476;28;20037;-53
2023/03/24 16:41:59;;;;;;;6.43;4.50;;;10.10;99.90;;;;;;20899896;28;20041;-48
2023/03/24 16:52:00;;;;;;;7.38;5.10;;;9.90;99.90;;;;;;20918973;28;20442;-54
2023/03/24 17:02:04;;;;;;;6.85;4.60;;;9.60;99.90;;;;;;20916588;28;20037;-54
2023/03/24 17:12:08;;;;;;;7.50;4.50;;;9.30;99.90;;;;;;20953303;28;20551;-54
2023/03/24 17:22:10;;;;;;;5.93;4.07;;;8.90;99.90;;;;;;20997902;28;20049;-48
2023/03/24 17:32:12;;;;;;;4.82;3.95;;;8.70;99.90;;;;;;20996916;28;20032;-53
2023/03/24 17:42:13;;;;;;;10.95;3.60;;;8.50;99.90;;;;;;20996020;28;20098;-54
2023/03/24 17:52:15;;;;;;;5.25;3.55;;;8.30;99.90;;;;;;20977883;28;20401;-46
2023/03/24 18:02:17;;;;;;;4.85;4.03;;;8.20;99.90;;;;;;20992753;28;20031;-53
2023/03/24 18:12:20;;;;;;;4.95;4.18;;;8.20;99.90;;;;;;20988253;28;20040;-47
2023/03/24 18:22:22;;;;;;;8.02;4.85;;;8.30;99.90;;;;;;20991004;28;20785;-48
2023/03/24 18:32:25;;;;;;;6.10;3.75;;;8.50;99.90;;;;;;20993205;28;20059;-49
2023/03/24 18:42:27;;;;;;;6.10;4.43;;;8.50;99.90;;;;;;20991485;28;20386;-47
2023/03/24 18:52:29;;;;;;;8.82;4.90;;;8.40;99.90;;;;;;20990806;28;20024;-46
2023/03/24 19:02:31;;;;;;;5.55;4.65;;;8.40;99.90;;;;;;20989589;28;20032;-48
2023/03/24 19:12:32;;;;;;;6.93;4.47;;;8.40;99.90;;;;;;20988675;28;20052;-48
2023/03/24 19:22:34;;;;;;;6.20;5.10;;;8.40;99.90;;;;;;20988403;28;20033;-46
2023/03/24 19:32:36;;;;;;;7.25;5.28;;;8.20;99.90;;;;;;20987650;28;20055;-47
2023/03/24 19:42:40;;;;;;;8.13;5.07;;;8.10;99.90;;;;;;20968786;28;20033;-51
2023/03/24 19:52:44;;;;;;;10.02;4.93;;;8.00;99.90;;;;;;20986589;28;20090;-47
2023/03/24 20:02:46;;;;;;;7.38;5.00;;;8.10;99.90;;;;;;20985347;28;20036;-46
2023/03/24 20:12:48;;;;;;;7.45;5.32;;;8.20;99.90;;;;;;20984948;28;20087;-50
2023/03/24 20:22:50;;;;;;;6.88;4.05;;;8.30;99.90;;;;;;20996937;28;20192;-47
2023/03/24 20:32:55;;;;;;;7.35;4.00;;;8.10;99.90;;;;;;21001147;28;20496;-48
2023/03/24 20:42:57;;;;;;;5.07;3.42;;;8.10;99.90;;;;;;21001835;28;20040;-47
2023/03/24 20:52:58;;;;;;;4.22;3.50;;;8.10;99.90;;;;;;21000127;28;20500;-50
2023/03/24 21:03:00;;;;;;;5.28;3.03;;;8.20;99.90;;;;;;20999087;28;20033;-49
2023/03/24 21:13:03;;;;;;;5.05;2.80;;;8.20;99.90;;;;;;20998670;28;20113;-47
2023/03/24 21:23:08;;;;;;;4.82;3.50;;;8.30;99.90;;;;;;20980431;28;20146;-52
2023/03/24 21:33:10;;;;;;;6.90;3.50;;;8.30;99.90;;;;;;20995841;28;20039;-47
2023/03/24 21:43:13;;;;;;;6.00;3.25;;;8.30;99.90;;;;;;20996081;28;20041;-46
2023/03/24 21:53:15;;;;;;;7.88;3.35;;;8.30;99.90;;;;;;20995818;28;20062;-50
2023/03/24 22:03:20;;;;;;;4.93;3.38;;;8.30;99.90;;;;;;20976536;28;20032;-48
2023/03/24 22:13:29;;;;;;;9.57;3.80;;;8.10;99.90;;;;;;20994066;28;20075;-47
2023/03/24 22:23:35;;;;;;;7.57;3.67;;;7.90;99.90;;;;;;20992052;28;20060;-46
2023/03/24 22:33:37;;;;;;;9.00;4.40;;;7.80;99.90;;;;;;20993176;28;20381;-48
2023/03/24 22:43:40;;;;;;;8.60;4.80;;;7.60;99.90;;;;;;20990838;28;20032;-48
2023/03/24 22:53:41;;;;;;;8.85;5.63;;;7.60;99.90;;;;;;20990027;28;20470;-48
2023/03/24 23:03:43;;;;;;;9.77;6.10;;;7.60;99.90;;;;;;20989497;28;20024;-49
2023/03/24 23:13:49;;;;;;;11.45;5.80;;;7.60;99.90;;;;;;20971181;28;20042;-47
2023/03/24 23:23:51;;;;;;;8.35;5.63;;;7.60;99.90;;;;;;20988494;28;20091;-47
2023/03/24 23:33:55;;;;;;;10.00;7.07;;;7.40;99.90;;;;;;20987629;28;20474;-49
2023/03/24 23:43:56;;;;;;;9.32;6.35;;;7.10;99.90;;;;;;20986704;28;20474;-50
2023/03/24 23:53:58;;;;;;;11.07;7.63;;;7.20;99.90;;;;;;20986293;28;20033;-50
